Time;durP1;ratioP1;P1;durP2;ratioP2;P2;SDS_P1;SDS_P2;PMS_P1;PMS_P2;Temp;Humidity;BMP_temperature;BMP_pressure;BME280_temperature;BME280_humidity;BME280_pressure;Samples;Min_cycle;Max_cycle;Signal;HPM_P1;HPM_P2
2023/01/20 00:00:27;;;;;;;11.20;9.80;;;;;;;;;;103157;1326;41125;-42
2023/01/20 00:03:25;;;;;;;11.90;10.10;;;;;;;;;;103082;1331;48149;-41
2023/01/20 00:06:05;;;;;;;11.50;10.00;;;;;;;;;;102951;1331;42923;-41
2023/01/20 00:08:38;;;;;;;10.70;9.10;;;;;;;;;;102867;1331;39241;-41
2023/01/20 00:11:14;;;;;;;11.40;10.00;;;;;;;;;;103122;1327;41498;-41
2023/01/20 00:13:51;;;;;;;11.60;9.60;;;;;;;;;;103305;1327;43928;-41
2023/01/20 00:16:26;;;;;;;12.50;10.10;;;;;;;;;;103287;1327;42780;-42
2023/01/20 00:19:05;;;;;;;12.50;9.90;;;;;;;;;;103296;1327;39352;-41
2023/01/20 00:21:38;;;;;;;12.00;9.70;;;;;;;;;;102933;1331;40998;-42
2023/01/20 00:24:08;;;;;;;11.70;9.60;;;;;;;;;;102868;1331;44980;-43
2023/01/20 00:26:44;;;;;;;12.10;10.00;;;;;;;;;;102891;1331;43834;-42
2023/01/20 00:29:20;;;;;;;10.80;9.20;;;;;;;;;;102799;1332;39560;-40
2023/01/20 00:31:52;;;;;;;10.90;9.30;;;;;;;;;;103189;1327;40940;-43
2023/01/20 00:34:27;;;;;;;11.30;9.40;;;;;;;;;;103273;1327;44024;-43
2023/01/20 00:37:04;;;;;;;11.10;9.50;;;;;;;;;;103263;1327;42689;-42
2023/01/20 00:39:40;;;;;;;11.80;9.50;;;;;;;;;;103295;1327;40479;-42
2023/01/20 00:42:15;;;;;;;11.40;9.60;;;;;;;;;;102765;1331;175527;-41
2023/01/20 00:44:48;;;;;;;11.80;9.90;;;;;;;;;;102882;1331;44040;-42
2023/01/20 00:47:28;;;;;;;11.60;9.80;;;;;;;;;;102827;1331;42785;-41
2023/01/20 00:50:04;;;;;;;11.60;9.40;;;;;;;;;;102892;1331;39262;-41
2023/01/20 00:52:41;;;;;;;11.00;9.50;;;;;;;;;;102861;1333;48812;-40
2023/01/20 00:55:14;;;;;;;11.50;9.50;;;;;;;;;;102844;1331;44088;-44
2023/01/20 00:57:51;;;;;;;11.10;9.40;;;;;;;;;;102847;1331;42733;-42
2023/01/20 01:00:32;;;;;;;12.00;9.80;;;;;;;;;;102868;1332;39719;-41
2023/01/20 01:03:05;;;;;;;11.80;9.40;;;;;;;;;;102817;1331;45838;-41
2023/01/20 01:05:43;;;;;;;11.30;9.20;;;;;;;;;;102873;1331;44249;-42
2023/01/20 01:08:21;;;;;;;10.80;9.10;;;;;;;;;;102930;1331;42702;-41
2023/01/20 01:10:57;;;;;;;10.70;9.20;;;;;;;;;;102867;1331;40632;-42
2023/01/20 01:13:30;;;;;;;11.20;9.20;;;;;;;;;;103300;1327;47620;-42
2023/01/20 01:16:06;;;;;;;10.90;9.10;;;;;;;;;;103268;1327;43951;-41
2023/01/20 01:18:41;;;;;;;10.80;9.10;;;;;;;;;;103308;1327;42523;-41
2023/01/20 01:21:16;;;;;;;11.10;9.20;;;;;;;;;;103134;1327;192711;-42
2023/01/20 01:23:50;;;;;;;10.80;9.40;;;;;;;;;;102883;1331;47307;-41
2023/01/20 01:26:21;;;;;;;11.80;9.40;;;;;;;;;;102901;1331;45362;-42
2023/01/20 01:28:56;;;;;;;10.90;8.90;;;;;;;;;;102893;1331;44136;-42
2023/01/20 01:31:29;;;;;;;10.60;9.00;;;;;;;;;;102895;1331;39533;-41
2023/01/20 01:34:09;;;;;;;10.80;9.20;;;;;;;;;;103352;1327;47157;-42
2023/01/20 01:36:46;;;;;;;11.10;9.00;;;;;;;;;;103266;1327;45179;-41
2023/01/20 01:39:21;;;;;;;11.60;9.30;;;;;;;;;;103321;1327;42554;-42
2023/01/20 01:41:54;;;;;;;10.80;9.00;;;;;;;;;;103209;1327;40626;-42
2023/01/20 01:44:30;;;;;;;10.90;9.00;;;;;;;;;;102865;1331;41457;-43
2023/01/20 01:47:08;;;;;;;11.20;9.10;;;;;;;;;;102882;1331;43913;-42
2023/01/20 01:49:46;;;;;;;11.10;9.10;;;;;;;;;;102881;1332;42793;-43
2023/01/20 01:52:27;;;;;;;11.40;9.10;;;;;;;;;;102955;1327;39695;-41
2023/01/20 01:54:57;;;;;;;11.20;9.10;;;;;;;;;;103298;1327;40715;-42
2023/01/20 01:57:35;;;;;;;10.70;8.70;;;;;;;;;;103347;1327;44007;-41
2023/01/20 02:00:11;;;;;;;10.70;9.10;;;;;;;;;;103362;1327;42620;-42
2023/01/20 02:02:46;;;;;;;10.30;8.80;;;;;;;;;;103174;1327;39821;-41
2023/01/20 02:05:18;;;;;;;10.70;9.20;;;;;;;;;;102926;1331;40899;-42
2023/01/20 02:07:52;;;;;;;10.40;8.60;;;;;;;;;;102892;1331;45669;-42
2023/01/20 02:10:31;;;;;;;11.40;8.90;;;;;;;;;;102869;1331;42567;-41
2023/01/20 02:13:10;;;;;;;10.30;9.00;;;;;;;;;;102998;1327;39625;-42
2023/01/20 02:15:49;;;;;;;10.80;8.90;;;;;;;;;;103360;1327;40877;-43
2023/01/20 02:18:49;;;;;;;10.70;8.50;;;;;;;;;;103341;1327;44051;-41
2023/01/20 02:22:03;;;;;;;10.80;8.70;;;;;;;;;;103383;1327;42583;-44
2023/01/20 02:25:06;;;;;;;10.60;8.50;;;;;;;;;;102712;1331;39375;-42
2023/01/20 02:27:49;;;;;;;;;;;;;;;;;;102930;1331;41366;-43
2023/01/20 02:30:44;;;;;;;10.90;8.30;;;;;;;;;;102887;1339;43898;-44
2023/01/20 02:33:28;;;;;;;10.90;8.60;;;;;;;;;;102814;1328;175671;-42
2023/01/20 02:36:06;;;;;;;11.20;8.80;;;;;;;;;;103335;1327;39402;-44
2023/01/20 02:38:43;;;;;;;10.70;9.00;;;;;;;;;;103320;1337;40942;-42
2023/01/20 02:41:22;;;;;;;11.50;8.90;;;;;;;;;;103307;1327;44177;-43
2023/01/20 02:44:09;;;;;;;11.70;9.00;;;;;;;;;;103100;1331;43035;-42
2023/01/20 02:46:54;;;;;;;10.10;8.30;;;;;;;;;;102864;1331;39146;-41
2023/01/20 02:49:37;;;;;;;10.40;8.40;;;;;;;;;;102901;1331;40715;-42
2023/01/20 02:52:17;;;;;;;10.30;8.50;;;;;;;;;;102878;1340;44025;-42
2023/01/20 02:54:54;;;;;;;10.30;8.40;;;;;;;;;;103192;1327;43939;-42
2023/01/20 02:57:30;;;;;;;10.90;8.30;;;;;;;;;;103354;1327;39401;-41
2023/01/20 03:00:11;;;;;;;10.60;8.20;;;;;;;;;;103312;1327;40866;-44
2023/01/20 03:02:52;;;;;;;10.80;8.20;;;;;;;;;;103325;1328;43866;-42
2023/01/20 03:05:26;;;;;;;10.30;8.20;;;;;;;;;;102904;1331;42841;-42
2023/01/20 03:08:00;;;;;;;10.20;8.20;;;;;;;;;;102880;1331;39218;-42
2023/01/20 03:10:40;;;;;;;11.60;8.60;;;;;;;;;;102894;1333;40684;-41
2023/01/20 03:13:20;;;;;;;10.80;9.20;;;;;;;;;;102864;1331;44416;-41
2023/01/20 03:16:02;;;;;;;10.70;8.40;;;;;;;;;;103288;1327;47977;-41
2023/01/20 03:18:33;;;;;;;10.80;8.80;;;;;;;;;;103310;1327;39694;-42
2023/01/20 03:21:10;;;;;;;10.00;8.10;;;;;;;;;;103300;1327;40977;-42
2023/01/20 03:23:46;;;;;;;11.20;8.50;;;;;;;;;;103324;1327;44264;-41
2023/01/20 03:26:23;;;;;;;10.30;8.00;;;;;;;;;;102888;1331;48736;-43
2023/01/20 03:28:57;;;;;;;10.80;8.60;;;;;;;;;;102845;1331;39248;-43
2023/01/20 03:31:35;;;;;;;11.00;8.60;;;;;;;;;;102867;1331;42238;-42
2023/01/20 03:34:13;;;;;;;10.00;8.00;;;;;;;;;;102830;1331;43975;-43
2023/01/20 03:36:47;;;;;;;11.00;8.50;;;;;;;;;;102870;1331;42827;-41
2023/01/20 03:39:29;;;;;;;10.50;8.30;;;;;;;;;;102823;1331;39492;-42
2023/01/20 03:42:14;;;;;;;10.30;8.20;;;;;;;;;;102862;1331;41532;-42
2023/01/20 03:45:00;;;;;;;10.90;8.20;;;;;;;;;;103024;1327;44047;-42
2023/01/20 03:47:49;;;;;;;10.80;8.40;;;;;;;;;;103494;1327;42437;-42
2023/01/20 03:50:36;;;;;;;10.10;8.10;;;;;;;;;;103252;1328;39462;-43
2023/01/20 03:53:28;;;;;;;10.40;8.20;;;;;;;;;;103511;1328;40902;-42
2023/01/20 03:56:11;;;;;;;10.70;8.70;;;;;;;;;;103033;1331;43857;-41
2023/01/20 03:58:46;;;;;;;10.90;8.40;;;;;;;;;;102875;1331;42825;-44
2023/01/20 04:01:21;;;;;;;10.30;8.00;;;;;;;;;;102862;1340;39344;-40
2023/01/20 04:03:57;;;;;;;10.70;8.20;;;;;;;;;;102907;1331;41066;-43
2023/01/20 04:06:32;;;;;;;10.60;8.30;;;;;;;;;;103395;1327;43967;-42
2023/01/20 04:09:09;;;;;;;9.90;8.20;;;;;;;;;;103527;1328;42633;-43
2023/01/20 04:11:43;;;;;;;10.90;8.60;;;;;;;;;;103534;1327;39597;-41
2023/01/20 04:14:16;;;;;;;10.50;8.10;;;;;;;;;;103507;1327;41033;-43
2023/01/20 04:16:51;;;;;;;10.40;7.90;;;;;;;;;;102963;1331;43795;-42
2023/01/20 04:19:27;;;;;;;10.70;8.70;;;;;;;;;;103137;1327;42576;-41
2023/01/20 04:22:04;;;;;;;10.80;8.20;;;;;;;;;;102860;1331;40836;-45
2023/01/20 04:24:48;;;;;;;10.80;8.40;;;;;;;;;;102861;1331;40887;-43
2023/01/20 04:27:23;;;;;;;10.80;8.40;;;;;;;;;;103489;1325;45417;-43
2023/01/20 04:30:02;;;;;;;11.10;8.70;;;;;;;;;;103538;1327;42550;-43
2023/01/20 04:32:36;;;;;;;10.20;8.20;;;;;;;;;;103503;1328;39204;-42
2023/01/20 04:35:12;;;;;;;10.80;8.10;;;;;;;;;;103485;1327;41230;-42
2023/01/20 04:37:44;;;;;;;10.60;8.30;;;;;;;;;;102868;1331;43929;-43
2023/01/20 04:40:17;;;;;;;10.50;8.00;;;;;;;;;;102902;1331;42654;-41
2023/01/20 04:42:47;;;;;;;10.90;8.30;;;;;;;;;;102883;1331;39368;-42
2023/01/20 04:45:18;;;;;;;10.50;8.00;;;;;;;;;;102664;1331;316033;-41
2023/01/20 04:47:51;;;;;;;10.50;7.90;;;;;;;;;;103458;1325;49630;-42
2023/01/20 04:50:29;;;;;;;11.20;8.40;;;;;;;;;;103512;1326;43429;-41
2023/01/20 04:53:05;;;;;;;10.30;7.60;;;;;;;;;;103529;1327;39225;-42
2023/01/20 04:55:42;;;;;;;10.50;7.90;;;;;;;;;;103525;1328;41039;-43
2023/01/20 04:58:20;;;;;;;10.70;8.30;;;;;;;;;;103218;1327;50828;-43
2023/01/20 05:00:53;;;;;;;10.50;7.90;;;;;;;;;;103267;1327;42302;-45
2023/01/20 05:03:23;;;;;;;10.80;8.50;;;;;;;;;;103284;1328;39455;-43
2023/01/20 05:05:56;;;;;;;9.80;7.70;;;;;;;;;;103292;1327;41174;-42
2023/01/20 05:08:29;;;;;;;10.40;8.00;;;;;;;;;;103468;1328;49525;-42
2023/01/20 05:11:06;;;;;;;11.20;8.40;;;;;;;;;;103504;1328;43308;-44
2023/01/20 05:13:39;;;;;;;10.60;7.90;;;;;;;;;;103525;1328;39020;-43
2023/01/20 05:16:20;;;;;;;11.00;8.10;;;;;;;;;;103536;1324;41136;-41
2023/01/20 05:18:56;;;;;;;10.10;7.50;;;;;;;;;;102801;1331;49720;-43
2023/01/20 05:21:31;;;;;;;10.90;8.40;;;;;;;;;;102836;1331;42785;-43
2023/01/20 05:24:01;;;;;;;11.10;8.10;;;;;;;;;;102855;1332;39311;-42
2023/01/20 05:26:36;;;;;;;10.40;8.20;;;;;;;;;;102862;1336;42257;-42
2023/01/20 05:29:09;;;;;;;11.50;8.20;;;;;;;;;;103486;1324;49692;-41
2023/01/20 05:31:41;;;;;;;10.20;7.50;;;;;;;;;;103509;1327;43047;-41
2023/01/20 05:34:15;;;;;;;11.00;8.20;;;;;;;;;;103533;1328;39419;-41
2023/01/20 05:36:46;;;;;;;11.40;8.40;;;;;;;;;;103523;1326;41099;-41
2023/01/20 05:39:20;;;;;;;10.40;7.30;;;;;;;;;;102697;1334;50145;-41
2023/01/20 05:41:53;;;;;;;11.00;8.20;;;;;;;;;;102788;1332;42701;-41
2023/01/20 05:44:24;;;;;;;10.50;7.90;;;;;;;;;;102799;1333;40719;-42
2023/01/20 05:47:00;;;;;;;11.00;8.20;;;;;;;;;;102778;1334;41046;-42
2023/01/20 05:49:33;;;;;;;11.60;8.70;;;;;;;;;;103456;1327;44138;-42
2023/01/20 05:52:06;;;;;;;11.30;8.20;;;;;;;;;;103501;1324;42695;-41
2023/01/20 05:54:36;;;;;;;11.40;8.60;;;;;;;;;;103500;1327;39425;-40
2023/01/20 05:57:13;;;;;;;11.30;8.60;;;;;;;;;;103530;1326;40957;-41
2023/01/20 05:59:46;;;;;;;11.60;9.00;;;;;;;;;;102783;1331;49639;-43
2023/01/20 06:02:21;;;;;;;11.90;8.30;;;;;;;;;;102852;1331;42750;-46
2023/01/20 06:05:00;;;;;;;12.60;9.20;;;;;;;;;;102844;1331;39107;-45
2023/01/20 06:07:35;;;;;;;11.10;8.50;;;;;;;;;;102809;1328;43394;-46
2023/01/20 06:10:07;;;;;;;11.10;8.90;;;;;;;;;;103516;1325;43987;-45
2023/01/20 06:12:52;;;;;;;12.90;9.20;;;;;;;;;;103491;1334;42681;-46
2023/01/20 06:15:30;;;;;;;11.00;8.60;;;;;;;;;;103171;1327;39302;-46
2023/01/20 06:18:11;;;;;;;12.00;8.70;;;;;;;;;;103400;1328;41308;-46
2023/01/20 06:20:44;;;;;;;12.50;9.00;;;;;;;;;;102857;1331;44344;-44
2023/01/20 06:23:24;;;;;;;12.00;9.10;;;;;;;;;;102896;1331;42811;-44
2023/01/20 06:26:01;;;;;;;11.30;8.70;;;;;;;;;;102760;1331;175538;-45
2023/01/20 06:28:35;;;;;;;13.00;9.60;;;;;;;;;;103056;1325;41099;-46
2023/01/20 06:31:09;;;;;;;12.50;9.00;;;;;;;;;;103400;1325;175816;-46
2023/01/20 06:33:42;;;;;;;11.80;8.90;;;;;;;;;;103527;1324;42768;-49
2023/01/20 06:36:15;;;;;;;12.00;9.00;;;;;;;;;;103473;1324;40615;-45
2023/01/20 06:38:51;;;;;;;11.70;9.10;;;;;;;;;;103291;1325;40817;-46
2023/01/20 06:41:29;;;;;;;11.70;9.30;;;;;;;;;;102824;1331;45369;-46
2023/01/20 06:44:06;;;;;;;12.30;9.10;;;;;;;;;;102852;1335;42768;-48
2023/01/20 06:46:38;;;;;;;12.40;9.40;;;;;;;;;;102848;1340;39482;-44
2023/01/20 06:49:14;;;;;;;12.00;8.90;;;;;;;;;;103035;1328;42249;-45
2023/01/20 06:51:51;;;;;;;11.90;9.30;;;;;;;;;;103490;1325;45691;-47
2023/01/20 06:54:29;;;;;;;11.80;8.90;;;;;;;;;;103471;1328;42741;-49
2023/01/20 06:57:01;;;;;;;11.00;8.50;;;;;;;;;;103489;1325;39035;-47
2023/01/20 06:59:39;;;;;;;12.00;9.00;;;;;;;;;;103207;1324;41110;-48
2023/01/20 07:02:16;;;;;;;11.70;8.90;;;;;;;;;;102863;1331;44144;-48
2023/01/20 07:04:52;;;;;;;11.50;8.80;;;;;;;;;;102883;1331;42736;-44
2023/01/20 07:07:24;;;;;;;13.00;9.00;;;;;;;;;;102856;1331;39307;-45
2023/01/20 07:09:57;;;;;;;11.70;9.00;;;;;;;;;;102475;1328;894963;-44
2023/01/20 07:12:32;;;;;;;11.30;8.90;;;;;;;;;;103361;1325;197480;-45
2023/01/20 07:15:07;;;;;;;11.10;8.80;;;;;;;;;;103507;1327;44189;-45
2023/01/20 07:17:45;;;;;;;11.40;8.90;;;;;;;;;;103514;1327;39462;-44
2023/01/20 07:20:20;;;;;;;11.40;8.50;;;;;;;;;;103090;1327;41250;-46
2023/01/20 07:22:58;;;;;;;13.10;9.10;;;;;;;;;;102865;1331;44262;-47
2023/01/20 07:25:33;;;;;;;11.90;9.00;;;;;;;;;;103014;1327;42868;-48
2023/01/20 07:28:06;;;;;;;11.80;8.70;;;;;;;;;;102827;1331;39531;-46
2023/01/20 07:30:41;;;;;;;11.90;8.60;;;;;;;;;;103209;1327;41175;-47
2023/01/20 07:33:22;;;;;;;11.00;8.10;;;;;;;;;;103514;1327;44297;-47
2023/01/20 07:35:57;;;;;;;13.90;10.00;;;;;;;;;;103473;1327;42805;-49
2023/01/20 07:38:41;;;;;;;12.40;10.70;;;;;;;;;;103509;1328;39731;-49
2023/01/20 07:41:18;;;;;;;14.10;10.80;;;;;;;;;;102976;1333;41147;-48
2023/01/20 07:43:55;;;;;;;13.10;10.40;;;;;;;;;;102893;1331;44380;-46
2023/01/20 07:46:32;;;;;;;13.00;10.70;;;;;;;;;;102856;1333;43148;-45
2023/01/20 07:49:05;;;;;;;13.60;11.40;;;;;;;;;;102838;1331;39314;-44
2023/01/20 07:51:42;;;;;;;12.70;10.80;;;;;;;;;;103357;1327;41167;-45
2023/01/20 07:54:16;;;;;;;13.20;10.80;;;;;;;;;;103500;1327;45837;-46
2023/01/20 07:56:51;;;;;;;12.50;10.70;;;;;;;;;;103509;1327;42708;-49
2023/01/20 07:59:28;;;;;;;12.80;10.30;;;;;;;;;;103506;1327;39216;-46
2023/01/20 08:02:07;;;;;;;14.20;11.10;;;;;;;;;;102863;1327;41112;-49
2023/01/20 08:04:40;;;;;;;13.20;10.80;;;;;;;;;;102878;1331;44720;-48
2023/01/20 08:07:16;;;;;;;13.00;10.60;;;;;;;;;;102864;1331;44013;-46
2023/01/20 08:09:52;;;;;;;13.90;11.20;;;;;;;;;;102867;1331;39281;-45
2023/01/20 08:12:27;;;;;;;13.60;10.70;;;;;;;;;;103421;1328;48838;-46
2023/01/20 08:15:04;;;;;;;13.20;10.70;;;;;;;;;;103495;1328;44071;-45
2023/01/20 08:17:44;;;;;;;13.40;10.60;;;;;;;;;;103524;1327;43917;-46
2023/01/20 08:20:22;;;;;;;13.70;11.20;;;;;;;;;;103460;1328;39367;-45
2023/01/20 08:23:02;;;;;;;14.00;11.60;;;;;;;;;;102852;1331;48383;-47
2023/01/20 08:25:40;;;;;;;13.20;10.80;;;;;;;;;;102869;1331;44289;-44
2023/01/20 08:28:16;;;;;;;14.40;11.40;;;;;;;;;;102873;1331;42785;-47
2023/01/20 08:30:52;;;;;;;14.10;11.20;;;;;;;;;;102883;1327;39454;-49
2023/01/20 08:33:30;;;;;;;13.90;11.90;;;;;;;;;;103515;1328;40901;-44
2023/01/20 08:36:11;;;;;;;14.10;11.70;;;;;;;;;;103499;1328;44623;-45
2023/01/20 08:38:42;;;;;;;14.60;11.70;;;;;;;;;;103490;1328;42613;-44
2023/01/20 08:41:16;;;;;;;13.70;11.40;;;;;;;;;;103324;1327;39294;-44
2023/01/20 08:43:49;;;;;;;13.20;11.10;;;;;;;;;;102887;1331;41169;-44
2023/01/20 08:46:23;;;;;;;14.30;11.50;;;;;;;;;;102878;1333;44144;-43
2023/01/20 08:49:00;;;;;;;14.50;11.60;;;;;;;;;;102860;1331;42812;-44
2023/01/20 08:51:33;;;;;;;14.20;11.30;;;;;;;;;;103022;1336;39418;-39
2023/01/20 08:54:06;;;;;;;14.80;11.60;;;;;;;;;;103497;1327;40976;-40
2023/01/20 08:56:36;;;;;;;13.50;10.30;;;;;;;;;;103482;1327;44152;-41
2023/01/20 08:59:07;;;;;;;14.70;11.10;;;;;;;;;;103503;1327;42336;-42
2023/01/20 09:01:37;;;;;;;14.40;11.40;;;;;;;;;;103353;1327;39585;-41
2023/01/20 09:04:16;;;;;;;13.30;10.50;;;;;;;;;;102883;1331;41289;-41
2023/01/20 09:06:51;;;;;;;14.00;11.00;;;;;;;;;;102824;1331;44109;-41
2023/01/20 09:09:27;;;;;;;13.90;11.10;;;;;;;;;;102945;1328;42703;-39
2023/01/20 09:12:03;;;;;;;12.80;10.20;;;;;;;;;;102901;1328;40701;-41
2023/01/20 09:14:41;;;;;;;14.00;10.90;;;;;;;;;;103501;1326;42382;-38
2023/01/20 09:17:19;;;;;;;13.80;10.70;;;;;;;;;;103471;1328;45347;-40
2023/01/20 09:19:54;;;;;;;12.70;10.00;;;;;;;;;;103342;1331;42724;-42
2023/01/20 09:22:24;;;;;;;12.60;10.40;;;;;;;;;;102969;1327;39306;-39
2023/01/20 09:24:54;;;;;;;13.60;10.60;;;;;;;;;;102823;1333;41177;-42
2023/01/20 09:27:24;;;;;;;13.30;11.00;;;;;;;;;;102754;1341;44418;-44
2023/01/20 09:30:04;;;;;;;12.80;10.30;;;;;;;;;;102832;1331;42681;-40
2023/01/20 09:32:38;;;;;;;12.80;10.10;;;;;;;;;;103035;1328;39344;-42
2023/01/20 09:35:10;;;;;;;12.60;9.70;;;;;;;;;;103511;1328;41094;-43
2023/01/20 09:43:54;;;;;;;12.10;9.60;;;;;;;;;;103139;1326;27772;-39
2023/01/20 09:46:39;;;;;;;12.60;9.90;;;;;;;;;;102814;1331;41082;-40
2023/01/20 09:55:24;;;;;;;13.00;9.40;;;;;;;;;;103490;1326;45772;-42
2023/01/20 09:58:06;;;;;;;11.50;9.10;;;;;;;;;;102878;1325;893369;-40
2023/01/20 10:00:39;;;;;;;11.20;9.10;;;;;;;;;;103503;1326;43973;-40
2023/01/20 10:03:17;;;;;;;11.20;8.60;;;;;;;;;;103289;1325;175356;-40
2023/01/20 10:05:51;;;;;;;11.10;8.40;;;;;;;;;;103040;1331;40628;-40
2023/01/20 10:08:31;;;;;;;11.30;9.40;;;;;;;;;;103069;1331;41018;-42
2023/01/20 10:11:07;;;;;;;11.50;9.00;;;;;;;;;;103063;1331;45180;-43
2023/01/20 10:13:46;;;;;;;11.30;8.70;;;;;;;;;;103069;1327;42940;-40
2023/01/20 10:16:31;;;;;;;11.00;8.30;;;;;;;;;;103431;1327;39288;-41
2023/01/20 10:19:14;;;;;;;11.50;8.80;;;;;;;;;;103475;1327;41025;-40
2023/01/20 10:21:57;;;;;;;11.40;8.30;;;;;;;;;;103499;1327;43624;-39
2023/01/20 10:24:33;;;;;;;10.70;8.50;;;;;;;;;;103286;1331;42661;-39
2023/01/20 10:27:05;;;;;;;10.50;8.30;;;;;;;;;;103038;1331;38868;-40
2023/01/20 10:29:38;;;;;;;11.10;8.30;;;;;;;;;;103019;1329;41180;-38
2023/01/20 10:32:26;;;;;;;11.10;8.50;;;;;;;;;;103043;1335;43994;-41
2023/01/20 10:35:14;;;;;;;10.80;8.50;;;;;;;;;;103309;1326;42776;-39
2023/01/20 10:37:53;;;;;;;9.80;7.60;;;;;;;;;;103506;1325;39469;-40
2023/01/20 10:40:40;;;;;;;9.50;7.50;;;;;;;;;;103500;1328;41033;-40
2023/01/20 10:43:15;;;;;;;11.40;8.00;;;;;;;;;;103514;1328;43972;-40
2023/01/20 10:46:18;;;;;;;10.30;8.00;;;;;;;;;;103118;1329;42681;-40
2023/01/20 10:49:24;;;;;;;10.20;7.50;;;;;;;;;;103062;1329;39592;-44
2023/01/20 10:52:18;;;;;;;10.30;7.70;;;;;;;;;;103069;1331;40686;-40
2023/01/20 10:55:00;;;;;;;10.00;8.00;;;;;;;;;;102991;1325;44895;-41
2023/01/20 10:57:34;;;;;;;10.10;7.80;;;;;;;;;;103488;1326;42648;-39
2023/01/20 11:00:18;;;;;;;10.30;7.60;;;;;;;;;;103492;1331;39526;-38
2023/01/20 11:02:54;;;;;;;10.00;7.60;;;;;;;;;;103252;1328;41122;-38
2023/01/20 11:05:31;;;;;;;9.80;7.60;;;;;;;;;;102801;1333;197137;-38
2023/01/20 11:08:05;;;;;;;9.70;7.30;;;;;;;;;;102765;1332;42700;-38
2023/01/20 11:10:37;;;;;;;9.30;7.20;;;;;;;;;;103267;1327;39499;-39
2023/01/20 11:13:12;;;;;;;9.60;7.70;;;;;;;;;;103513;1327;41083;-38
2023/01/20 11:15:46;;;;;;;9.30;7.30;;;;;;;;;;103457;1325;44135;-40
2023/01/20 11:18:27;;;;;;;9.50;7.40;;;;;;;;;;103506;1327;42613;-40
2023/01/20 11:21:01;;;;;;;9.40;7.40;;;;;;;;;;103346;1327;39317;-41
2023/01/20 11:23:38;;;;;;;8.90;7.00;;;;;;;;;;103355;1327;40854;-40
2023/01/20 11:26:20;;;;;;;8.90;6.70;;;;;;;;;;102977;1327;44069;-43
2023/01/20 11:28:54;;;;;;;9.40;7.40;;;;;;;;;;103513;1327;42665;-40
2023/01/20 11:31:38;;;;;;;9.30;7.10;;;;;;;;;;103509;1327;39330;-40
2023/01/20 11:34:24;;;;;;;9.40;6.80;;;;;;;;;;103123;1328;41096;-39
2023/01/20 11:37:17;;;;;;;8.50;6.60;;;;;;;;;;103190;1328;44156;-39
2023/01/20 11:40:00;;;;;;;9.00;7.10;;;;;;;;;;103317;1324;43873;-39
2023/01/20 11:42:44;;;;;;;8.80;6.70;;;;;;;;;;103224;1327;39224;-44
2023/01/20 11:45:33;;;;;;;8.80;6.60;;;;;;;;;;103380;1328;41005;-43
2023/01/20 11:48:20;;;;;;;8.90;7.10;;;;;;;;;;103418;1326;45870;-43
2023/01/20 11:51:02;;;;;;;8.50;6.40;;;;;;;;;;103464;1327;42575;-41
2023/01/20 11:53:36;;;;;;;8.20;6.40;;;;;;;;;;103478;1326;39239;-41
2023/01/20 11:56:19;;;;;;;8.80;6.30;;;;;;;;;;103143;1331;40860;-39
2023/01/20 11:59:00;;;;;;;8.40;6.60;;;;;;;;;;102782;1331;44076;-42
2023/01/20 12:01:56;;;;;;;9.10;6.80;;;;;;;;;;103107;1331;42873;-38
2023/01/20 12:04:45;;;;;;;9.10;6.50;;;;;;;;;;102700;1333;39540;-38
2023/01/20 12:07:24;;;;;;;8.40;6.40;;;;;;;;;;103260;1327;41069;-40
2023/01/20 12:10:03;;;;;;;8.00;6.20;;;;;;;;;;103316;1327;44243;-40
2023/01/20 12:12:49;;;;;;;8.00;6.20;;;;;;;;;;103340;1328;43928;-40
2023/01/20 12:15:26;;;;;;;8.20;5.90;;;;;;;;;;103391;1327;39512;-37
2023/01/20 12:18:05;;;;;;;8.20;6.20;;;;;;;;;;103413;1327;46268;-37
2023/01/20 12:20:49;;;;;;;8.30;6.10;;;;;;;;;;103503;1328;45459;-37
2023/01/20 12:23:44;;;;;;;8.10;6.20;;;;;;;;;;103367;1328;42840;-38
2023/01/20 12:26:22;;;;;;;8.30;6.10;;;;;;;;;;103462;1328;40771;-37
2023/01/20 12:29:02;;;;;;;7.60;5.70;;;;;;;;;;103464;1325;41225;-37
2023/01/20 12:31:38;;;;;;;8.10;6.20;;;;;;;;;;103479;1326;44226;-36
2023/01/20 12:34:16;;;;;;;8.50;6.10;;;;;;;;;;103321;1328;43821;-36
2023/01/20 12:37:10;;;;;;;7.60;5.70;;;;;;;;;;103302;1331;39451;-37
2023/01/20 12:40:03;;;;;;;8.00;5.70;;;;;;;;;;102929;1330;42795;-36
2023/01/20 12:43:13;;;;;;;7.50;5.40;;;;;;;;;;102973;1327;44759;-38
2023/01/20 12:46:03;;;;;;;7.20;5.40;;;;;;;;;;102826;1327;278348;-36
2023/01/20 12:48:48;;;;;;;7.60;5.50;;;;;;;;;;103424;1327;39330;-38
2023/01/20 12:51:35;;;;;;;6.90;5.10;;;;;;;;;;103469;1326;41289;-37
2023/01/20 12:54:39;;;;;;;7.60;5.60;;;;;;;;;;103455;1327;44054;-38
2023/01/20 12:57:29;;;;;;;;;;;;;;;;;;103036;1327;42533;-39
2023/01/20 13:00:25;;;;;;;7.70;5.50;;;;;;;;;;102812;1331;39733;-36
2023/01/20 13:03:43;;;;;;;7.20;5.10;;;;;;;;;;102750;1331;41140;-37
2023/01/20 13:06:42;;;;;;;7.70;5.50;;;;;;;;;;102658;1334;43872;-37
2023/01/20 13:09:41;;;;;;;8.10;5.50;;;;;;;;;;103098;1327;48321;-36
2023/01/20 13:12:36;;;;;;;7.30;5.30;;;;;;;;;;102887;1327;39076;-37
2023/01/20 13:15:19;;;;;;;8.30;5.60;;;;;;;;;;103010;1334;41334;-38
2023/01/20 13:18:14;;;;;;;8.20;5.30;;;;;;;;;;103193;1327;44065;-38
2023/01/20 13:20:48;;;;;;;6.90;5.10;;;;;;;;;;103485;1328;43836;-37
2023/01/20 13:23:25;;;;;;;9.10;6.40;;;;;;;;;;103450;1328;38897;-37
2023/01/20 13:26:04;;;;;;;7.80;5.80;;;;;;;;;;103468;1325;40749;-37
2023/01/20 13:28:50;;;;;;;7.20;5.40;;;;;;;;;;103449;1328;43851;-37
2023/01/20 13:31:44;;;;;;;7.30;5.20;;;;;;;;;;103419;1327;42634;-37
2023/01/20 13:34:35;;;;;;;7.30;5.10;;;;;;;;;;103481;1328;39292;-36
2023/01/20 13:37:34;;;;;;;7.60;5.50;;;;;;;;;;103497;1328;40786;-37
2023/01/20 13:40:32;;;;;;;8.40;5.90;;;;;;;;;;102994;1330;49219;-37
2023/01/20 13:43:03;;;;;;;7.70;5.40;;;;;;;;;;103282;1327;42634;-37
2023/01/20 13:45:33;;;;;;;7.60;5.20;;;;;;;;;;102848;1327;175436;-36
2023/01/20 13:48:23;;;;;;;8.70;6.10;;;;;;;;;;103123;1328;41062;-36
2023/01/20 13:50:55;;;;;;;8.20;5.90;;;;;;;;;;103470;1327;51008;-37
2023/01/20 13:53:29;;;;;;;8.10;5.80;;;;;;;;;;103502;1327;42669;-37
2023/01/20 13:56:01;;;;;;;7.70;5.90;;;;;;;;;;103467;1328;41606;-36
2023/01/20 13:58:33;;;;;;;9.10;6.80;;;;;;;;;;103444;1327;42261;-36
2023/01/20 14:01:12;;;;;;;8.10;5.80;;;;;;;;;;102930;1331;44492;-36
2023/01/20 14:03:43;;;;;;;7.60;5.40;;;;;;;;;;103025;1326;42689;-36
2023/01/20 14:06:22;;;;;;;6.80;4.90;;;;;;;;;;102904;1331;175525;-37
2023/01/20 14:08:57;;;;;;;7.50;5.40;;;;;;;;;;103133;1328;41168;-37
2023/01/20 14:11:30;;;;;;;7.40;5.60;;;;;;;;;;103397;1327;50580;-36
2023/01/20 14:14:06;;;;;;;8.50;6.30;;;;;;;;;;103500;1324;42524;-36
2023/01/20 14:16:43;;;;;;;7.10;5.00;;;;;;;;;;103507;1326;39553;-37
2023/01/20 14:19:28;;;;;;;7.00;5.40;;;;;;;;;;103344;1325;40909;-37
2023/01/20 14:22:01;;;;;;;7.30;4.80;;;;;;;;;;102753;1330;53395;-36
2023/01/20 14:24:35;;;;;;;7.50;5.00;;;;;;;;;;103222;1328;42698;-37
2023/01/20 14:27:18;;;;;;;7.30;5.30;;;;;;;;;;102943;1329;39267;-37
2023/01/20 14:29:55;;;;;;;6.90;5.00;;;;;;;;;;103324;1325;40993;-37
2023/01/20 14:32:28;;;;;;;6.90;4.80;;;;;;;;;;103404;1328;44122;-37
2023/01/20 14:35:01;;;;;;;;;;;;;;;;;;103515;1326;42397;-37
2023/01/20 14:37:35;;;;;;;7.00;4.30;;;;;;;;;;103463;1327;39217;-37
2023/01/20 14:40:22;;;;;;;6.50;4.40;;;;;;;;;;103338;1327;40952;-37
2023/01/20 14:43:05;;;;;;;6.60;4.40;;;;;;;;;;102881;1331;44200;-37
2023/01/20 14:45:38;;;;;;;7.10;4.80;;;;;;;;;;103189;1327;42665;-37
2023/01/20 14:48:12;;;;;;;7.60;5.10;;;;;;;;;;102858;1337;40808;-37
2023/01/20 14:51:04;;;;;;;6.70;4.60;;;;;;;;;;103330;1327;40983;-36
2023/01/20 14:53:41;;;;;;;6.60;4.40;;;;;;;;;;103487;1328;43972;-37
2023/01/20 14:56:19;;;;;;;6.50;4.20;;;;;;;;;;103474;1327;42207;-38
2023/01/20 14:58:52;;;;;;;6.50;4.40;;;;;;;;;;103515;1328;39441;-38
2023/01/20 15:01:25;;;;;;;7.00;4.50;;;;;;;;;;103086;1332;41024;-37
2023/01/20 15:04:04;;;;;;;6.30;4.30;;;;;;;;;;102841;1331;43858;-38
2023/01/20 15:06:36;;;;;;;6.80;4.50;;;;;;;;;;102845;1331;42479;-37
2023/01/20 15:09:26;;;;;;;6.40;4.20;;;;;;;;;;102806;1331;39199;-37
2023/01/20 15:12:41;;;;;;;6.90;4.20;;;;;;;;;;103238;1328;41100;-37
2023/01/20 15:15:21;;;;;;;6.40;4.30;;;;;;;;;;103419;1328;43973;-37
2023/01/20 15:18:17;;;;;;;5.80;3.90;;;;;;;;;;103373;1327;42720;-36
2023/01/20 15:20:52;;;;;;;6.10;4.20;;;;;;;;;;103308;1328;39486;-36
2023/01/20 15:23:44;;;;;;;6.10;3.90;;;;;;;;;;102800;1331;41088;-36
2023/01/20 15:26:26;;;;;;;6.30;4.20;;;;;;;;;;102935;1328;44112;-36
2023/01/20 15:29:02;;;;;;;6.60;4.10;;;;;;;;;;102807;1340;42778;-36
2023/01/20 15:31:39;;;;;;;5.80;3.80;;;;;;;;;;102945;1327;39374;-36
2023/01/20 15:34:15;;;;;;;5.60;3.70;;;;;;;;;;103449;1327;40921;-37
2023/01/20 15:36:52;;;;;;;6.10;4.00;;;;;;;;;;103502;1327;44063;-36